Time;durP1;ratioP1;P1;durP2;ratioP2;P2;SDS_P1;SDS_P2;PMS_P1;PMS_P2;Temp;Humidity;BMP_temperature;BMP_pressure;BME280_temperature;BME280_humidity;BME280_pressure;Samples;Min_cycle;Max_cycle;Signal;HPM_P1;HPM_P2
2023/07/22 00:02:16;;;;;;;20.52;14.15;;;;;;;14.99;79.65;98593.97;5026401;28;20432;-82
2023/07/22 00:04:41;;;;;;;17.58;14.00;;;;;;;14.80;79.52;98585.03;5030853;28;20388;-82
2023/07/22 00:07:06;;;;;;;15.73;12.00;;;;;;;14.96;79.77;98594.53;5008967;28;20773;-82
2023/07/22 00:09:35;;;;;;;18.17;12.55;;;;;;;14.94;79.57;98591.34;5004733;28;20040;-82
2023/07/22 00:12:01;;;;;;;18.67;12.60;;;;;;;14.96;79.63;98605.28;5006569;28;20076;-82
2023/07/22 00:14:26;;;;;;;21.05;13.02;;;;;;;14.81;80.02;98586.63;5024656;28;20060;-81
2023/07/22 00:16:52;;;;;;;16.17;11.88;;;;;;;14.95;79.11;98595.63;5017385;28;20497;-82
2023/07/22 00:19:17;;;;;;;20.10;13.52;;;;;;;14.85;79.37;98598.41;5049431;28;20504;-81
2023/07/22 00:21:43;;;;;;;20.63;12.82;;;;;;;14.84;79.87;98602.19;5016127;28;20025;-82
2023/07/22 00:24:08;;;;;;;17.27;13.48;;;;;;;14.82;79.43;98585.53;5027482;28;20030;-82
2023/07/22 00:26:34;;;;;;;16.23;12.10;;;;;;;14.91;79.24;98609.91;5034740;28;20038;-81
2023/07/22 00:28:59;;;;;;;20.52;12.98;;;;;;;14.75;79.29;98586.94;5025914;28;20029;-82
2023/07/22 00:31:24;;;;;;;18.33;12.00;;;;;;;14.84;79.35;98585.25;5024995;28;20086;-82
2023/07/22 00:33:50;;;;;;;19.48;13.20;;;;;;;14.79;79.32;98604.09;5012458;28;20108;-82
2023/07/22 00:36:15;;;;;;;21.98;13.82;;;;;;;14.72;79.17;98604.41;4995462;28;20025;-82
2023/07/22 00:38:40;;;;;;;21.55;14.30;;;;;;;14.79;79.15;98583.41;5028698;28;20033;-82
2023/07/22 00:41:07;;;;;;;15.98;12.45;;;;;;;14.75;79.47;98590.44;5030453;28;20435;-82
2023/07/22 00:43:32;;;;;;;21.98;11.60;;;;;;;14.62;79.19;98591.06;5049171;28;20601;-82
2023/07/22 00:45:58;;;;;;;20.73;13.30;;;;;;;14.60;79.44;98598.63;5038877;28;20279;-82
2023/07/22 00:48:24;;;;;;;21.75;14.00;;;;;;;14.51;79.22;98586.84;5015216;28;20493;-82
2023/07/22 00:50:50;;;;;;;17.85;12.45;;;;;;;14.55;79.41;98597.84;5038477;28;20112;-82
2023/07/22 00:53:15;;;;;;;22.00;13.70;;;;;;;14.44;79.37;98591.75;5022446;28;20119;-82
2023/07/22 00:55:41;;;;;;;19.70;13.15;;;;;;;14.50;78.92;98587.16;5026342;28;20480;-82
2023/07/22 00:58:07;;;;;;;20.08;12.98;;;;;;;14.57;78.56;98601.06;5033047;28;20120;-82
2023/07/22 01:00:32;;;;;;;21.27;14.40;;;;;;;14.49;78.35;98591.72;5037052;28;20481;-82
2023/07/22 01:02:58;;;;;;;17.45;12.00;;;;;;;14.56;78.67;98583.34;5032576;28;20607;-82
2023/07/22 01:05:26;;;;;;;21.38;12.98;;;;;;;14.58;78.83;98592.72;5010418;28;20037;-82
2023/07/22 01:07:52;;;;;;;21.58;13.80;;;;;;;14.58;78.12;98584.66;5021001;28;20474;-82
2023/07/22 01:10:17;;;;;;;21.25;13.52;;;;;;;14.48;78.54;98595.47;5030453;28;20090;-82
2023/07/22 01:12:44;;;;;;;21.25;13.82;;;;;;;14.43;78.49;98590.16;5034231;28;20485;-81
2023/07/22 01:15:10;;;;;;;18.05;12.82;;;;;;;14.37;78.49;98580.53;5038295;28;20033;-81
2023/07/22 01:17:39;;;;;;;18.65;12.23;;;;;;;14.50;78.47;98595.22;5030622;28;20035;-81
2023/07/22 01:20:06;;;;;;;18.67;13.57;;;;;;;14.44;78.72;98597.09;5026782;28;20025;-81
2023/07/22 01:22:33;;;;;;;19.67;12.68;;;;;;;14.23;78.82;98577.63;5033881;28;20029;-81
2023/07/22 01:24:59;;;;;;;25.33;13.02;;;;;;;14.24;78.53;98581.13;5034477;28;20034;-81
2023/07/22 01:27:25;;;;;;;21.42;12.65;;;;;;;14.33;78.84;98602.84;5027276;28;20037;-81
2023/07/22 01:29:51;;;;;;;18.88;12.38;;;;;;;14.37;78.05;98612.75;5026421;28;20034;-81
2023/07/22 01:32:17;;;;;;;15.35;10.93;;;;;;;14.25;78.54;98607.69;5034901;28;20548;-81
2023/07/22 01:34:42;;;;;;;16.80;10.48;;;;;;;14.35;78.54;98608.75;5028586;28;20040;-81
2023/07/22 01:37:09;;;;;;;20.75;13.70;;;;;;;14.33;78.19;98603.63;5025649;28;20064;-81
2023/07/22 01:39:35;;;;;;;20.77;12.82;;;;;;;14.24;78.10;98616.03;5024666;28;20116;-81
2023/07/22 01:42:01;;;;;;;19.08;12.90;;;;;;;14.06;78.13;98589.81;5030348;28;20033;-81
2023/07/22 01:44:27;;;;;;;18.52;12.35;;;;;;;14.12;78.03;98602.94;5025189;28;20099;-81
2023/07/22 01:46:52;;;;;;;16.88;12.30;;;;;;;14.14;78.62;98608.00;5029407;28;20037;-81
2023/07/22 01:49:17;;;;;;;18.92;12.23;;;;;;;14.16;77.81;98598.59;5012236;28;20061;-81
2023/07/22 01:51:43;;;;;;;20.08;12.68;;;;;;;14.13;78.18;98615.25;5024530;28;20096;-81
2023/07/22 01:54:09;;;;;;;19.70;11.77;;;;;;;14.13;78.32;98612.56;5031420;28;20096;-81
2023/07/22 01:56:38;;;;;;;22.15;12.15;;;;;;;14.00;78.53;98601.66;5033631;28;20042;-81
2023/07/22 01:59:04;;;;;;;19.80;12.77;;;;;;;13.98;78.11;98603.78;5022888;28;20030;-81
2023/07/22 02:01:29;;;;;;;17.13;12.77;;;;;;;13.85;78.50;98599.03;5030265;28;20029;-82
2023/07/22 02:03:55;;;;;;;21.77;12.88;;;;;;;14.06;78.21;98611.28;5035719;28;20550;-82
2023/07/22 02:06:20;;;;;;;15.63;11.32;;;;;;;13.96;78.06;98603.25;5031477;28;20499;-82
2023/07/22 02:08:46;;;;;;;21.10;11.80;;;;;;;13.86;78.41;98590.72;4997230;28;20116;-81
2023/07/22 02:11:11;;;;;;;19.55;11.55;;;;;;;13.82;78.04;98588.88;5010165;28;20393;-82
2023/07/22 02:13:37;;;;;;;18.30;12.85;;;;;;;13.91;78.29;98617.50;5031006;28;20025;-82
2023/07/22 02:16:03;;;;;;;18.40;12.93;;;;;;;13.75;78.14;98612.50;5030914;28;20691;-82
2023/07/22 02:18:28;;;;;;;18.35;12.18;;;;;;;13.67;78.35;98591.63;5021794;28;20034;-82
2023/07/22 02:20:55;;;;;;;18.67;11.57;;;;;;;13.82;78.29;98605.78;5012673;28;20029;-81
2023/07/22 02:23:21;;;;;;;22.13;13.65;;;;;;;13.58;78.44;98595.94;5028026;28;20504;-81
2023/07/22 02:25:53;;;;;;;17.88;12.57;;;;;;;13.77;78.00;98600.41;5024777;28;20036;-81
2023/07/22 02:28:21;;;;;;;23.63;14.20;;;;;;;13.77;78.53;98623.75;5026111;28;20029;-81
2023/07/22 02:31:02;;;;;;;19.23;12.57;;;;;;;13.85;78.34;98615.94;5027303;28;20029;-81
2023/07/22 02:33:27;;;;;;;19.35;11.35;;;;;;;13.71;78.83;98604.19;5031087;28;20033;-81
2023/07/22 02:35:53;;;;;;;22.98;12.95;;;;;;;13.81;78.27;98612.19;5025738;28;20051;-82
2023/07/22 02:38:18;;;;;;;20.25;12.77;;;;;;;13.88;78.21;98611.91;5027595;28;20044;-81
2023/07/22 02:40:43;;;;;;;23.63;12.68;;;;;;;13.90;77.84;98617.78;5034114;28;20025;-81
2023/07/22 02:43:09;;;;;;;22.17;13.48;;;;;;;13.73;78.25;98609.28;5034600;28;20036;-81
2023/07/22 02:45:36;;;;;;;21.88;12.85;;;;;;;13.71;78.26;98603.41;5023169;28;20444;-81
2023/07/22 02:48:02;;;;;;;19.10;13.38;;;;;;;13.53;78.46;98588.72;5027334;28;20029;-81
2023/07/22 02:50:27;;;;;;;19.60;11.90;;;;;;;13.79;78.57;98619.72;5028990;28;20479;-81
2023/07/22 02:52:53;;;;;;;23.85;14.20;;;;;;;13.50;78.63;98598.09;5021317;28;20087;-82
2023/07/22 02:55:18;;;;;;;18.67;13.02;;;;;;;13.71;78.53;98625.66;5010240;28;20435;-81
2023/07/22 02:57:46;;;;;;;19.98;12.98;;;;;;;13.64;78.54;98603.69;5028598;28;20029;-82
2023/07/22 03:00:12;;;;;;;21.55;13.75;;;;;;;13.74;78.72;98618.94;5027074;28;20504;-82
2023/07/22 03:02:39;;;;;;;23.45;13.50;;;;;;;13.71;78.29;98614.13;5023743;28;20431;-81
2023/07/22 03:05:07;;;;;;;22.83;12.70;;;;;;;13.85;77.84;98628.53;5028256;28;20033;-81
2023/07/22 03:07:34;;;;;;;25.77;12.95;;;;;;;13.65;77.95;98602.59;5021295;28;20034;-81
2023/07/22 03:10:00;;;;;;;20.10;11.65;;;;;;;13.80;78.35;98634.75;5022495;28;20033;-81
2023/07/22 03:12:25;;;;;;;20.70;13.40;;;;;;;13.58;78.82;98617.38;5018462;28;20117;-81
2023/07/22 03:14:51;;;;;;;25.98;15.18;;;;;;;13.60;78.39;98615.22;5009016;28;20380;-81
2023/07/22 03:17:19;;;;;;;18.65;13.43;;;;;;;13.74;78.15;98618.94;5034468;28;20078;-81
2023/07/22 03:19:44;;;;;;;18.60;13.43;;;;;;;13.78;78.12;98638.78;5039089;28;20040;-81
2023/07/22 03:22:13;;;;;;;16.88;11.82;;;;;;;13.68;78.31;98626.19;5034415;28;20596;-81
2023/07/22 03:24:39;;;;;;;19.45;12.88;;;;;;;13.88;78.08;98636.84;5026984;28;20087;-82
2023/07/22 03:27:04;;;;;;;25.60;13.18;;;;;;;13.82;77.73;98645.19;5010040;28;20029;-82
2023/07/22 03:29:30;;;;;;;16.58;11.82;;;;;;;13.84;78.07;98645.72;5022497;28;20029;-82
2023/07/22 03:31:57;;;;;;;21.48;12.52;;;;;;;13.79;78.24;98645.72;5024748;28;20424;-82
2023/07/22 03:34:22;;;;;;;20.80;13.40;;;;;;;13.61;78.83;98635.63;5020820;28;20044;-81
2023/07/22 03:36:48;;;;;;;22.73;12.30;;;;;;;13.55;78.77;98632.13;5027895;28;20025;-82
2023/07/22 03:39:14;;;;;;;20.75;13.90;;;;;;;13.39;78.84;98617.16;5006919;28;20033;-81
2023/07/22 03:41:39;;;;;;;23.25;12.75;;;;;;;13.47;78.60;98630.03;5025362;28;20103;-81
2023/07/22 03:44:05;;;;;;;21.73;13.05;;;;;;;13.71;78.00;98643.63;5022036;28;20036;-81
2023/07/22 03:46:30;;;;;;;21.98;12.55;;;;;;;13.63;77.94;98633.47;5019863;28;20080;-81
2023/07/22 03:48:55;;;;;;;23.35;11.15;;;;;;;13.72;78.04;98647.91;5026282;28;20079;-81
2023/07/22 03:51:21;;;;;;;19.33;11.10;;;;;;;13.74;77.41;98649.25;5028100;28;20044;-82
2023/07/22 03:53:46;;;;;;;18.85;10.98;;;;;;;13.72;77.84;98651.38;5012567;28;20039;-82
2023/07/22 03:56:12;;;;;;;15.63;9.75;;;;;;;13.68;77.80;98654.88;5009848;28;20086;-81
2023/07/22 03:58:37;;;;;;;15.48;10.40;;;;;;;13.65;77.52;98644.72;5010585;28;20038;-81
2023/07/22 04:01:03;;;;;;;15.82;10.02;;;;;;;13.65;77.74;98660.81;5029494;28;20145;-81
2023/07/22 04:03:28;;;;;;;17.17;10.10;;;;;;;13.49;78.12;98646.63;5026028;28;20485;-81
2023/07/22 04:05:55;;;;;;;19.10;11.30;;;;;;;13.68;77.85;98653.03;5017009;28;20038;-81
2023/07/22 04:08:20;;;;;;;17.00;10.48;;;;;;;13.70;78.12;98644.69;5032515;28;20490;-81
2023/07/22 04:10:53;;;;;;;20.65;11.70;;;;;;;13.53;78.62;98650.38;5028442;28;20149;-81
2023/07/22 04:13:18;;;;;;;16.30;11.18;;;;;;;13.59;77.84;98638.56;5020378;28;20056;-81
2023/07/22 04:15:44;;;;;;;20.65;10.63;;;;;;;13.59;78.12;98621.66;5000810;28;20033;-81
2023/07/22 04:18:09;;;;;;;21.45;10.77;;;;;;;13.69;77.61;98632.38;5029673;28;20064;-81
2023/07/22 04:20:35;;;;;;;17.50;11.10;;;;;;;13.75;77.87;98653.53;5022552;28;20099;-81
2023/07/22 04:23:00;;;;;;;15.80;10.65;;;;;;;13.63;78.23;98631.56;5027287;28;20033;-81
2023/07/22 04:25:25;;;;;;;17.08;11.48;;;;;;;13.81;77.84;98652.44;5004617;28;20060;-81
2023/07/22 04:27:51;;;;;;;17.60;10.35;;;;;;;13.81;77.97;98652.44;5024600;28;20099;-81
2023/07/22 04:30:20;;;;;;;18.75;10.02;;;;;;;13.72;78.63;98645.22;5032484;28;20367;-81
2023/07/22 04:32:49;;;;;;;19.02;11.57;;;;;;;13.73;78.48;98636.91;5025850;28;20029;-81
2023/07/22 04:35:19;;;;;;;16.75;10.60;;;;;;;13.76;79.12;98648.97;5023191;28;20071;-81
2023/07/22 04:37:45;;;;;;;15.85;10.40;;;;;;;13.72;79.15;98647.91;5024381;28;20030;-81
2023/07/22 04:40:18;;;;;;;18.20;11.45;;;;;;;13.70;79.11;98639.31;5024431;28;20096;-81
2023/07/22 04:42:44;;;;;;;18.50;12.02;;;;;;;13.82;78.87;98646.00;5027978;28;20024;-81
2023/07/22 04:45:11;;;;;;;15.95;10.30;;;;;;;13.67;79.30;98635.34;5025811;28;20034;-81
2023/07/22 04:47:37;;;;;;;17.05;11.30;;;;;;;13.89;78.87;98643.81;4989242;28;20385;-81
2023/07/22 04:50:04;;;;;;;14.50;10.10;;;;;;;13.88;79.17;98654.81;5031677;28;20030;-81
2023/07/22 04:52:29;;;;;;;16.00;10.57;;;;;;;13.84;79.43;98646.53;5027485;28;20033;-81
2023/07/22 04:54:54;;;;;;;18.70;10.40;;;;;;;13.90;79.21;98644.63;5033964;28;20029;-81
2023/07/22 04:57:21;;;;;;;17.45;10.35;;;;;;;13.95;79.21;98642.75;5007768;28;20381;-80
2023/07/22 04:59:46;;;;;;;14.93;9.75;;;;;;;13.92;79.31;98647.81;5019524;28;20350;-80
2023/07/22 05:02:12;;;;;;;17.42;10.10;;;;;;;14.01;79.69;98654.25;5022696;28;20033;-81
2023/07/22 05:04:38;;;;;;;14.18;9.75;;;;;;;13.99;79.09;98634.94;5042412;28;20038;-81
2023/07/22 05:07:03;;;;;;;16.33;10.02;;;;;;;14.34;77.88;98645.53;5014749;28;20025;-81
2023/07/22 05:09:29;;;;;;;13.38;10.20;;;;;;;14.20;77.83;98621.13;5029712;28;20394;-81
2023/07/22 05:11:54;;;;;;;16.40;9.40;;;;;;;14.41;77.70;98639.84;5009219;28;20084;-81
2023/07/22 05:14:20;;;;;;;15.02;10.25;;;;;;;14.38;77.59;98648.44;5009076;28;20046;-81
2023/07/22 05:16:45;;;;;;;14.10;9.07;;;;;;;14.40;77.41;98646.28;5008486;28;20032;-81
2023/07/22 05:19:10;;;;;;;13.18;9.55;;;;;;;14.44;77.73;98658.09;5021851;28;20034;-81
2023/07/22 05:21:36;;;;;;;14.20;10.25;;;;;;;14.48;77.75;98657.22;5024703;28;20211;-81
2023/07/22 05:24:01;;;;;;;17.05;9.68;;;;;;;14.53;77.37;98654.53;5020702;28;20397;-81
2023/07/22 05:26:26;;;;;;;13.10;9.23;;;;;;;14.47;77.76;98661.00;5023395;28;20119;-81
2023/07/22 05:28:52;;;;;;;13.48;10.27;;;;;;;14.54;77.36;98666.06;5022054;28;20040;-81
2023/07/22 05:31:18;;;;;;;13.32;9.88;;;;;;;14.49;77.32;98666.91;5032230;28;20033;-81
2023/07/22 05:33:43;;;;;;;13.32;9.13;;;;;;;14.64;77.11;98658.75;5028761;28;20055;-81
2023/07/22 05:36:08;;;;;;;10.90;8.52;;;;;;;14.54;76.99;98645.41;5023894;28;20120;-81
2023/07/22 05:38:34;;;;;;;13.20;9.05;;;;;;;14.72;76.77;98655.47;5024237;28;20393;-81
2023/07/22 05:40:59;;;;;;;13.75;8.82;;;;;;;14.56;77.59;98645.91;5030987;28;20079;-81
2023/07/22 05:43:25;;;;;;;13.70;9.40;;;;;;;14.77;76.95;98650.06;5043699;28;20094;-81
2023/07/22 05:45:50;;;;;;;12.07;8.90;;;;;;;14.82;76.72;98658.09;5026444;28;20041;-81
2023/07/22 05:48:16;;;;;;;13.25;10.18;;;;;;;14.75;77.14;98649.53;5032262;28;20564;-81
2023/07/22 05:50:41;;;;;;;16.20;10.52;;;;;;;14.84;76.92;98655.13;5033056;28;20048;-81
2023/07/22 05:53:07;;;;;;;15.38;11.32;;;;;;;14.79;76.06;98636.34;5016489;28;20033;-81
2023/07/22 05:55:32;;;;;;;14.70;10.38;;;;;;;14.93;75.81;98648.88;5034688;28;20384;-81
2023/07/22 05:57:58;;;;;;;16.75;11.05;;;;;;;14.76;76.35;98643.09;5016323;28;20514;-81
2023/07/22 06:00:23;;;;;;;16.92;10.35;;;;;;;15.03;76.42;98656.03;5036266;28;20041;-81
2023/07/22 06:02:48;;;;;;;16.70;10.90;;;;;;;15.03;75.89;98654.16;5028083;28;20525;-81
2023/07/22 06:05:14;;;;;;;16.42;11.10;;;;;;;15.09;75.62;98652.25;4996112;28;20121;-81
2023/07/22 06:07:39;;;;;;;16.13;10.95;;;;;;;15.08;75.51;98649.81;5014794;28;20033;-81
2023/07/22 06:10:06;;;;;;;16.70;11.13;;;;;;;15.11;75.71;98663.50;5004663;28;20025;-81
2023/07/22 06:12:31;;;;;;;17.25;10.93;;;;;;;15.06;76.33;98663.53;5032719;28;20026;-81
2023/07/22 06:14:57;;;;;;;14.15;10.48;;;;;;;15.09;75.53;98651.44;5029956;28;20037;-81
2023/07/22 06:17:22;;;;;;;14.90;10.05;;;;;;;15.18;75.37;98665.88;5007139;28;20429;-81
2023/07/22 06:19:48;;;;;;;15.00;10.50;;;;;;;15.04;75.96;98663.03;5023965;28;20057;-81
2023/07/22 06:22:13;;;;;;;16.27;10.20;;;;;;;15.13;76.22;98673.97;5006754;28;20039;-81
2023/07/22 06:24:38;;;;;;;16.38;10.23;;;;;;;15.11;75.85;98676.16;5028149;28;20069;-80
2023/07/22 06:27:04;;;;;;;15.88;11.23;;;;;;;15.12;75.01;98665.09;5023719;28;20523;-81
2023/07/22 06:29:29;;;;;;;17.50;10.63;;;;;;;15.24;74.84;98668.22;5027812;28;20034;-81
2023/07/22 06:31:55;;;;;;;12.85;10.38;;;;;;;15.31;74.63;98666.00;5023924;28;20408;-81
2023/07/22 06:34:20;;;;;;;19.15;11.52;;;;;;;15.23;76.83;98676.56;5017473;28;20060;-81
2023/07/22 06:36:45;;;;;;;16.33;11.20;;;;;;;15.36;74.51;98665.97;5027861;28;20028;-82
2023/07/22 06:39:11;;;;;;;12.75;9.45;;;;;;;15.28;74.31;98650.44;5011914;28;20029;-82
2023/07/22 06:41:36;;;;;;;19.88;10.57;;;;;;;15.43;74.73;98668.31;5012124;28;20036;-82
2023/07/22 06:44:01;;;;;;;15.38;10.40;;;;;;;15.44;74.38;98669.97;5026855;28;20033;-79
2023/07/22 06:46:27;;;;;;;18.02;11.05;;;;;;;15.64;74.04;98686.69;5026560;28;20134;-80
2023/07/22 06:48:52;;;;;;;17.15;10.15;;;;;;;15.39;75.75;98673.47;5030865;28;20430;-80
2023/07/22 06:51:17;;;;;;;16.85;11.65;;;;;;;15.66;74.87;98689.88;5023817;28;20037;-80
2023/07/22 06:53:43;;;;;;;12.80;9.63;;;;;;;15.76;73.67;98694.38;5007470;28;20037;-81
2023/07/22 06:56:08;;;;;;;11.80;9.57;;;;;;;15.66;74.05;98681.81;5025594;28;20025;-81
2023/07/22 06:58:34;;;;;;;14.73;9.13;;;;;;;15.71;73.29;98672.91;5011752;28;20112;-80
2023/07/22 07:00:59;;;;;;;16.67;10.07;;;;;;;15.63;72.90;98673.53;5024873;28;20038;-80
2023/07/22 07:03:24;;;;;;;13.73;9.07;;;;;;;15.79;73.82;98688.44;5009730;28;20034;-80
2023/07/22 07:05:57;;;;;;;14.05;9.77;;;;;;;15.80;73.48;98690.03;5022460;28;20033;-80
2023/07/22 07:08:23;;;;;;;14.02;10.02;;;;;;;15.82;75.18;98687.84;5026401;28;20044;-80
2023/07/22 07:10:49;;;;;;;13.40;9.38;;;;;;;15.75;72.73;98663.16;5032430;28;20033;-80
2023/07/22 07:13:14;;;;;;;17.65;9.68;;;;;;;15.80;73.13;98681.13;5028419;28;20022;-80
2023/07/22 07:15:40;;;;;;;16.02;9.80;;;;;;;16.07;72.41;98703.72;5013436;28;20032;-81
2023/07/22 07:18:05;;;;;;;13.13;9.77;;;;;;;16.00;72.55;98697.06;5025965;28;20040;-80
2023/07/22 07:20:31;;;;;;;10.38;8.75;;;;;;;16.11;71.77;98712.00;5024952;28;20497;-81
2023/07/22 07:22:56;;;;;;;18.33;9.43;;;;;;;16.17;71.44;98711.66;5026616;28;20509;-80
2023/07/22 07:25:21;;;;;;;14.30;10.55;;;;;;;15.81;73.41;98672.81;5027767;28;20029;-80
2023/07/22 07:27:47;;;;;;;11.88;8.23;;;;;;;16.29;71.21;98711.25;5037210;28;20061;-81
2023/07/22 07:30:12;;;;;;;13.00;8.57;;;;;;;16.33;71.35;98710.41;5028563;28;20060;-81
2023/07/22 07:32:38;;;;;;;12.85;8.73;;;;;;;16.43;71.19;98701.38;5026161;28;20608;-80
2023/07/22 07:35:04;;;;;;;11.90;8.45;;;;;;;16.57;70.84;98731.13;5025714;28;20037;-80
2023/07/22 07:37:29;;;;;;;11.45;8.70;;;;;;;16.50;71.74;98728.78;5027942;28;20436;-80
2023/07/22 07:39:59;;;;;;;13.80;9.10;;;;;;;16.55;71.01;98730.63;5037228;28;20044;-80
2023/07/22 07:42:25;;;;;;;11.63;9.05;;;;;;;16.56;71.41;98733.03;5006083;28;20029;-80
2023/07/22 07:44:50;;;;;;;20.15;9.88;;;;;;;16.66;70.75;98734.78;5025926;28;20029;-81
2023/07/22 07:47:16;;;;;;;12.50;8.65;;;;;;;16.61;70.54;98727.56;5028922;28;20072;-80
2023/07/22 07:49:41;;;;;;;11.90;9.05;;;;;;;16.69;70.77;98734.19;5006625;28;20064;-80
2023/07/22 07:52:06;;;;;;;16.15;10.07;;;;;;;16.84;69.83;98725.91;5024964;28;20037;-80
2023/07/22 07:54:32;;;;;;;8.57;7.63;;;;;;;16.83;69.30;98724.31;5011401;28;20091;-80
2023/07/22 07:56:57;;;;;;;10.90;8.68;;;;;;;16.73;69.43;98714.44;5009252;28;20064;-80
2023/07/22 07:59:22;;;;;;;14.20;8.40;;;;;;;16.80;69.57;98717.59;5008720;28;20040;-81
2023/07/22 08:01:48;;;;;;;17.23;9.25;;;;;;;16.90;69.64;98736.34;5025281;28;20025;-81
2023/07/22 08:04:13;;;;;;;11.73;9.10;;;;;;;16.94;70.87;98726.56;5019738;28;20041;-80
2023/07/22 08:06:39;;;;;;;11.63;9.38;;;;;;;17.03;68.70;98732.91;4993871;28;20036;-81
2023/07/22 08:09:05;;;;;;;14.15;9.13;;;;;;;17.07;68.77;98719.63;5005878;28;20516;-81
2023/07/22 08:11:31;;;;;;;13.20;9.02;;;;;;;17.14;70.35;98730.84;5030560;28;20489;-81
2023/07/22 08:13:56;;;;;;;12.35;8.05;;;;;;;17.08;68.24;98722.03;5029109;28;20034;-81
2023/07/22 08:16:22;;;;;;;12.65;8.80;;;;;;;17.27;68.30;98726.59;5002225;28;20428;-80
2023/07/22 08:18:47;;;;;;;18.88;9.40;;;;;;;17.34;69.25;98724.31;5006378;28;20029;-80
2023/07/22 08:21:13;;;;;;;12.10;9.07;;;;;;;17.33;68.29;98722.72;5026589;28;20055;-81
2023/07/22 08:23:38;;;;;;;16.02;9.63;;;;;;;17.22;68.09;98705.91;5006018;28;20040;-80
2023/07/22 08:26:05;;;;;;;14.38;9.73;;;;;;;17.40;67.49;98729.34;5027801;28;20104;-80
2023/07/22 08:28:31;;;;;;;11.93;9.65;;;;;;;17.19;67.72;98712.66;5024107;28;20092;-80
2023/07/22 08:30:57;;;;;;;13.75;9.80;;;;;;;17.41;67.68;98736.31;5026504;28;20033;-81
2023/07/22 08:33:23;;;;;;;15.25;10.23;;;;;;;17.30;67.52;98713.31;5024533;28;20059;-81
2023/07/22 08:35:51;;;;;;;17.27;10.65;;;;;;;17.29;67.45;98716.31;5029338;28;20532;-81
2023/07/22 08:38:16;;;;;;;12.07;9.73;;;;;;;17.33;67.48;98734.31;5025546;28;20033;-80
2023/07/22 08:40:42;;;;;;;17.17;11.57;;;;;;;17.25;66.68;98716.88;5029675;28;20029;-81
2023/07/22 08:43:10;;;;;;;18.17;12.05;;;;;;;17.22;67.04;98733.69;5030425;28;20373;-80
2023/07/22 08:45:37;;;;;;;20.15;12.02;;;;;;;17.32;67.38;98734.63;5018658;28;20029;-81
2023/07/22 08:48:09;;;;;;;19.20;11.65;;;;;;;17.38;66.49;98725.34;5045301;28;20041;-80
2023/07/22 08:50:41;;;;;;;17.75;10.73;;;;;;;17.45;66.79;98714.97;5011456;28;20029;-81
2023/07/22 08:53:07;;;;;;;23.05;11.70;;;;;;;17.34;66.79;98725.13;5025257;28;20028;-80
2023/07/22 08:55:34;;;;;;;17.63;11.70;;;;;;;17.22;66.64;98724.78;5027719;28;20036;-81
2023/07/22 08:58:00;;;;;;;16.00;11.90;;;;;;;17.33;67.79;98717.31;5029948;28;20041;-81
2023/07/22 09:00:26;;;;;;;16.27;11.73;;;;;;;17.58;68.18;98714.22;5016583;28;20037;-80
2023/07/22 09:02:53;;;;;;;15.65;10.98;;;;;;;17.81;68.14;98732.97;5020037;28;20029;-81
2023/07/22 09:05:18;;;;;;;16.23;9.98;;;;;;;17.85;66.38;98725.88;5028388;28;20057;-81
2023/07/22 09:07:46;;;;;;;12.13;10.05;;;;;;;17.83;66.41;98725.38;5018747;28;20054;-80
2023/07/22 09:10:13;;;;;;;13.02;9.75;;;;;;;18.02;65.90;98725.25;5026040;28;20026;-81
2023/07/22 09:12:40;;;;;;;13.25;10.70;;;;;;;17.94;64.89;98724.06;5025985;28;20029;-81
2023/07/22 09:15:12;;;;;;;14.45;10.43;;;;;;;17.83;65.71;98716.47;5009953;28;20424;-81
2023/07/22 09:17:41;;;;;;;15.63;9.90;;;;;;;18.01;64.92;98702.06;5019927;28;20037;-81
2023/07/22 09:20:07;;;;;;;18.10;10.65;;;;;;;18.19;64.55;98709.28;5028880;28;20044;-82
2023/07/22 09:22:33;;;;;;;21.20;10.05;;;;;;;18.43;65.18;98714.47;5034958;28;20460;-81
2023/07/22 09:25:34;;;;;;;18.95;10.13;;;;;;;18.43;63.90;98715.28;5029270;28;20037;-81
2023/07/22 09:28:00;;;;;;;12.57;9.20;;;;;;;18.50;63.53;98694.03;4963537;28;20656;-81
2023/07/22 09:30:38;;;;;;;14.48;9.82;;;;;;;18.49;64.04;98688.94;5017455;28;20087;-80
2023/07/22 09:33:06;;;;;;;14.15;8.93;;;;;;;18.54;63.15;98716.66;5011538;28;20461;-81
2023/07/22 09:35:43;;;;;;;13.73;10.38;;;;;;;18.31;63.50;98719.56;5029181;28;20131;-81
2023/07/22 09:38:09;;;;;;;16.42;10.02;;;;;;;18.36;62.48;98711.34;5028781;28;20107;-81
2023/07/22 09:40:34;;;;;;;14.95;9.88;;;;;;;18.59;62.19;98708.44;5033064;28;20021;-82
2023/07/22 09:43:02;;;;;;;12.65;9.68;;;;;;;18.45;62.07;98687.97;5022753;28;20456;-82
2023/07/22 09:45:29;;;;;;;15.32;10.13;;;;;;;18.60;61.89;98710.06;5024748;28;20034;-81
2023/07/22 09:47:55;;;;;;;14.38;9.63;;;;;;;18.50;61.64;98695.97;5024321;28;20080;-81
2023/07/22 09:50:25;;;;;;;11.73;8.57;;;;;;;18.56;61.33;98700.16;5023232;28;20021;-81
2023/07/22 09:52:53;;;;;;;10.32;8.63;;;;;;;18.74;61.34;98712.72;5020218;28;20481;-81
2023/07/22 09:55:24;;;;;;;12.95;10.15;;;;;;;18.67;60.99;98688.00;5022287;28;20832;-81
2023/07/22 09:57:54;;;;;;;14.32;9.25;;;;;;;18.73;60.49;98694.91;5019807;28;20026;-81
2023/07/22 10:00:24;;;;;;;21.90;9.98;;;;;;;18.65;61.15;98712.63;5025695;28;20055;-81
2023/07/22 10:02:49;;;;;;;19.08;9.23;;;;;;;18.55;61.29;98687.72;5030383;28;20091;-80
2023/07/22 10:05:19;;;;;;;16.45;8.80;;;;;;;18.60;60.91;98693.03;5022490;28;20033;-81
2023/07/22 10:07:49;;;;;;;13.95;9.20;;;;;;;18.68;61.21;98692.31;5030515;28;20033;-81
2023/07/22 10:10:17;;;;;;;11.75;9.32;;;;;;;18.82;60.95;98705.78;5029553;28;20071;-80
2023/07/22 10:12:43;;;;;;;12.20;9.65;;;;;;;18.62;61.11;98697.03;5021888;28;20083;-81
2023/07/22 10:15:12;;;;;;;11.73;8.80;;;;;;;18.52;60.58;98699.16;5025360;28;20029;-81
2023/07/22 10:17:38;;;;;;;12.23;9.48;;;;;;;18.62;62.04;98696.22;5028880;28;20125;-82
2023/07/22 10:20:07;;;;;;;12.55;8.10;;;;;;;18.76;61.93;98707.81;5029258;28;20359;-81
2023/07/22 10:22:35;;;;;;;11.27;8.63;;;;;;;18.51;61.13;98682.13;5021352;28;20037;-81
2023/07/22 10:25:03;;;;;;;12.10;9.40;;;;;;;18.57;61.33;98715.25;5024939;28;20128;-80
2023/07/22 10:27:31;;;;;;;10.35;8.38;;;;;;;18.45;61.18;98706.88;5027334;28;20076;-81
2023/07/22 10:29:56;;;;;;;10.68;8.20;;;;;;;18.37;60.62;98705.66;5028325;28;20036;-80
2023/07/22 10:32:22;;;;;;;14.50;9.18;;;;;;;18.51;60.27;98705.66;5026878;28;20482;-81
2023/07/22 10:34:47;;;;;;;10.82;8.23;;;;;;;18.55;60.90;98702.06;5023735;28;20029;-80
2023/07/22 10:37:13;;;;;;;11.20;8.13;;;;;;;18.65;60.37;98696.41;5025430;28;20358;-81
2023/07/22 10:39:38;;;;;;;10.68;8.05;;;;;;;18.79;62.19;98698.28;4987325;28;1123610;-80
2023/07/22 10:42:04;;;;;;;11.57;9.13;;;;;;;18.70;61.39;98677.38;5032397;28;20164;-81
2023/07/22 10:44:38;;;;;;;15.40;8.75;;;;;;;18.73;60.27;98696.78;5025824;28;20036;-81
2023/07/22 10:47:04;;;;;;;8.80;7.90;;;;;;;18.55;60.75;98676.91;5031913;28;20029;-81
2023/07/22 10:49:44;;;;;;;10.55;8.88;;;;;;;18.71;61.22;98691.69;5028008;28;20029;-80
2023/07/22 10:52:13;;;;;;;9.85;8.38;;;;;;;18.90;60.00;98680.72;5026093;28;20049;-80
2023/07/22 10:54:38;;;;;;;12.68;8.57;;;;;;;18.94;59.91;98682.50;5021207;28;20428;-80
2023/07/22 10:57:16;;;;;;;11.27;8.32;;;;;;;18.86;60.06;98664.31;5023485;28;20119;-80
2023/07/22 10:59:49;;;;;;;9.77;7.78;;;;;;;18.81;60.54;98671.72;5032769;28;20036;-80
2023/07/22 11:02:26;;;;;;;11.43;8.65;;;;;;;18.86;61.01;98677.03;5024337;28;20037;-80
2023/07/22 11:04:56;;;;;;;12.15;8.00;;;;;;;19.00;59.76;98656.91;5020110;28;20037;-80
2023/07/22 11:07:43;;;;;;;11.93;8.98;;;;;;;19.11;59.36;98658.28;5019187;28;20125;-80
2023/07/22 11:10:18;;;;;;;10.18;7.95;;;;;;;19.26;58.70;98657.09;5025631;28;20547;-80
2023/07/22 11:12:45;;;;;;;13.13;8.43;;;;;;;19.28;58.34;98658.41;5025023;28;20438;-80
2023/07/22 11:15:10;;;;;;;14.77;8.93;;;;;;;19.00;59.17;98642.63;5024622;28;20345;-80
2023/07/22 11:17:37;;;;;;;12.98;8.75;;;;;;;18.97;58.18;98645.94;5021333;28;20104;-81